Time;durP1;ratioP1;P1;durP2;ratioP2;P2;SDS_P1;SDS_P2;PMS_P1;PMS_P2;Temp;Humidity;BMP_temperature;BMP_pressure;BME280_temperature;BME280_humidity;BME280_pressure;Samples;Min_cycle;Max_cycle;Signal;HPM_P1;HPM_P2
2022/01/23 00:00:47;;;;;;;;;;;5.50;99.90;;;;;;5042330;28;19927;-50
2022/01/23 00:03:17;;;;;;;;;;;5.40;99.90;;;;;;5066490;28;20258;-50
2022/01/23 00:05:45;;;;;;;;;;;5.50;99.90;;;;;;5048954;28;19924;-50
2022/01/23 00:08:13;;;;;;;;;;;6.20;99.90;;;;;;5064742;28;20431;-50
2022/01/23 00:10:39;;;;;;;;;;;5.50;99.90;;;;;;5048014;28;19934;-50
2022/01/23 00:13:09;;;;;;;;;;;5.50;99.90;;;;;;5030821;28;19916;-51
2022/01/23 00:18:20;;;;;;;;;;;5.50;99.90;;;;;;5064300;28;19974;-49
2022/01/23 00:20:46;;;;;;;;;;;5.50;99.90;;;;;;5065907;28;19935;-51
2022/01/23 00:23:30;;;;;;;;;;;5.50;99.90;;;;;;5064935;28;20355;-50
2022/01/23 00:31:25;;;;;;;;;;;5.50;99.90;;;;;;5055340;28;20051;-50
2022/01/23 00:33:54;;;;;;;;;;;5.50;99.90;;;;;;5064041;28;19917;-50
2022/01/23 00:36:24;;;;;;;;;;;5.40;99.90;;;;;;5060752;28;19916;-49
2022/01/23 00:38:50;;;;;;;;;;;5.40;99.90;;;;;;5047439;28;19916;-50
2022/01/23 00:41:16;;;;;;;;;;;5.40;99.90;;;;;;5068589;28;20012;-51
2022/01/23 00:43:43;;;;;;;;;;;5.40;99.90;;;;;;5066785;28;20434;-49
2022/01/23 00:46:22;;;;;;;;;;;5.40;99.90;;;;;;5040160;28;19927;-52
2022/01/23 00:51:26;;;;;;;;;;;5.50;99.90;;;;;;5049363;28;19920;-49
2022/01/23 00:53:52;;;;;;;;;;;5.40;99.90;;;;;;5078589;28;19920;-50
2022/01/23 00:56:18;;;;;;;;;;;5.40;99.90;;;;;;5050795;28;19920;-51
2022/01/23 00:58:44;;;;;;;;;;;5.40;99.90;;;;;;5062680;28;19917;-51
2022/01/23 01:01:10;;;;;;;;;;;5.40;99.90;;;;;;5069193;28;19963;-51
2022/01/23 01:03:36;;;;;;;;;;;5.40;99.90;;;;;;5085725;28;19920;-50
2022/01/23 01:06:02;;;;;;;;;;;5.40;99.90;;;;;;5043398;28;19924;-50
2022/01/23 01:08:28;;;;;;;;;;;5.40;99.90;;;;;;5068199;28;19935;-52
2022/01/23 01:14:20;;;;;;;;;;;5.40;99.90;;;;;;5064003;28;19920;-50
2022/01/23 01:30:28;;;;;;;;;;;5.40;99.90;;;;;;5052735;28;20457;-50
2022/01/23 01:35:49;;;;;;;;;;;5.50;99.90;;;;;;5058834;28;19924;-50
2022/01/23 01:38:15;;;;;;;;;;;5.50;99.90;;;;;;5067643;28;19927;-50
2022/01/23 01:40:41;;;;;;;;;;;5.40;99.90;;;;;;5067862;28;19921;-50
2022/01/23 01:43:07;;;;;;;;;;;5.50;99.90;;;;;;5051006;28;19969;-50
2022/01/23 01:45:34;;;;;;;;;;;5.50;99.90;;;;;;5050141;28;19929;-50
2022/01/23 01:48:01;;;;;;;;;;;5.50;99.90;;;;;;5060311;28;19916;-51
2022/01/23 01:50:28;;;;;;;;;;;5.50;99.90;;;;;;5067646;28;19917;-49
2022/01/23 01:52:54;;;;;;;;;;;5.50;99.90;;;;;;5049201;28;20359;-50
2022/01/23 01:55:26;;;;;;;;;;;5.50;99.90;;;;;;5049395;28;19982;-49
2022/01/23 01:57:56;;;;;;;;;;;5.50;99.90;;;;;;5059760;28;19916;-53
2022/01/23 02:08:28;;;;;;;;;;;5.40;99.90;;;;;;5062911;28;19924;-51
2022/01/23 02:10:59;;;;;;;;;;;5.40;99.90;;;;;;5052808;28;20013;-49
2022/01/23 02:13:32;;;;;;;;;;;5.40;99.90;;;;;;5053282;28;20370;-48
2022/01/23 02:51:07;;;;;;;;;;;5.40;99.90;;;;;;5100111;27;20312;-49
2022/01/23 02:56:18;;;;;;;;;;;5.40;99.90;;;;;;5068257;28;20335;-52
2022/01/23 02:59:12;;;;;;;;;;;5.40;99.90;;;;;;5068528;28;20928;-49
2022/01/23 03:01:34;;;;;;;;;;;5.40;99.90;;;;;;5062566;28;20004;-53
2022/01/23 03:04:07;;;;;;;;;;;5.40;99.90;;;;;;5059972;28;19917;-49
2022/01/23 03:14:22;;;;;;;;;;;5.40;99.90;;;;;;5067004;28;19965;-51
2022/01/23 03:25:21;;;;;;;;;;;5.40;99.90;;;;;;5066983;28;19916;-49
2022/01/23 03:33:07;;;;;;;;;;;5.40;99.90;;;;;;5036664;28;19924;-50
2022/01/23 03:35:33;;;;;;;;;;;5.50;99.90;;;;;;5075521;28;19927;-47
2022/01/23 03:37:58;;;;;;;;;;;5.40;99.90;;;;;;5067140;28;19928;-48
2022/01/23 03:40:24;;;;;;;;;;;5.50;99.90;;;;;;5067066;28;20396;-49
2022/01/23 03:42:56;;;;;;;;;;;5.40;99.90;;;;;;5070435;28;19971;-49
2022/01/23 03:45:36;;;;;;;;;;;5.50;99.90;;;;;;5044899;28;20389;-49
2022/01/23 03:50:31;;;;;;;;;;;5.50;99.90;;;;;;5063140;28;19916;-49
2022/01/23 03:52:56;;;;;;;;;;;5.50;99.90;;;;;;5064560;28;19970;-51
2022/01/23 03:55:22;;;;;;;;;;;5.50;99.90;;;;;;5064185;28;19916;-49
2022/01/23 03:57:48;;;;;;;;;;;5.50;99.90;;;;;;5066214;28;19917;-50
2022/01/23 04:00:16;;;;;;;;;;;5.50;99.90;;;;;;5061931;28;19935;-49
2022/01/23 04:02:42;;;;;;;;;;;5.50;99.90;;;;;;5060876;28;19974;-48
2022/01/23 04:05:08;;;;;;;;;;;5.40;99.90;;;;;;5046290;28;19927;-49
2022/01/23 04:07:36;;;;;;;;;;;5.50;99.90;;;;;;5067363;28;19920;-52
2022/01/23 04:10:02;;;;;;;;;;;5.50;99.90;;;;;;5066538;28;20282;-51
2022/01/23 04:15:36;;;;;;;;;;;5.50;99.90;;;;;;5058923;28;20014;-52
2022/01/23 04:19:03;;;;;;;;;;;5.50;99.90;;;;;;5050179;28;20285;-49
2022/01/23 04:45:29;;;;;;;;;;;5.50;99.90;;;;;;5070020;28;19926;-49
2022/01/23 05:04:21;;;;;;;;;;;5.40;99.90;;;;;;5083962;28;19923;-50
2022/01/23 05:07:10;;;;;;;;;;;5.50;99.90;;;;;;5034542;28;20392;-48
2022/01/23 05:09:33;;;;;;;;;;;5.50;99.90;;;;;;5066934;28;20012;-50
2022/01/23 05:12:01;;;;;;;;;;;5.40;99.90;;;;;;5054927;28;20395;-50
2022/01/23 05:14:31;;;;;;;;;;;5.50;99.90;;;;;;5067098;28;19916;-50
2022/01/23 05:16:57;;;;;;;;;;;5.50;99.90;;;;;;5067323;28;20378;-49
2022/01/23 05:19:23;;;;;;;;;;;5.50;99.90;;;;;;5065993;28;19959;-49
2022/01/23 05:24:30;;;;;;;;;;;5.50;99.90;;;;;;5083472;28;19922;-50
2022/01/23 05:27:00;;;;;;;;;;;5.50;99.90;;;;;;5080786;28;20250;-49
2022/01/23 05:29:25;;;;;;;;;;;5.50;99.90;;;;;;5081649;28;20447;-49
2022/01/23 05:31:52;;;;;;;;;;;5.50;99.90;;;;;;5069924;28;19920;-51
2022/01/23 05:34:20;;;;;;;;;;;5.50;99.90;;;;;;5083582;28;19939;-49
2022/01/23 05:36:46;;;;;;;;;;;5.50;99.90;;;;;;5067300;28;19925;-50
2022/01/23 05:39:14;;;;;;;;;;;5.50;99.90;;;;;;5080121;28;19927;-49
2022/01/23 05:41:39;;;;;;;;;;;5.50;99.90;;;;;;5066081;28;20340;-49
2022/01/23 05:44:06;;;;;;;;;;;5.50;99.90;;;;;;5065254;28;19920;-49
2022/01/23 05:46:32;;;;;;;;;;;5.50;99.90;;;;;;5051899;28;19916;-49
2022/01/23 05:48:58;;;;;;;;;;;5.50;99.90;;;;;;5052454;28;19923;-49
2022/01/23 05:51:23;;;;;;;;;;;5.50;99.90;;;;;;5043895;28;19928;-49
2022/01/23 05:53:50;;;;;;;;;;;5.50;99.90;;;;;;5072379;28;20007;-50
2022/01/23 05:56:16;;;;;;;;;;;5.40;99.90;;;;;;5033245;28;20110;-50
2022/01/23 05:58:42;;;;;;;;;;;5.80;99.90;;;;;;5066994;28;19965;-51
2022/01/23 06:01:08;;;;;;;;;;;5.50;99.90;;;;;;5033251;28;19920;-51
2022/01/23 06:03:34;;;;;;;;;;;5.50;99.90;;;;;;5043172;28;20569;-49
2022/01/23 06:06:00;;;;;;;;;;;5.40;99.90;;;;;;5048368;28;19967;-52
2022/01/23 06:08:26;;;;;;;;;;;5.50;99.90;;;;;;5062205;28;19925;-49
2022/01/23 06:10:58;;;;;;;;;;;5.50;99.90;;;;;;5066911;28;19924;-50
2022/01/23 06:13:25;;;;;;;;;;;5.50;99.90;;;;;;5065839;28;19929;-50
2022/01/23 06:15:51;;;;;;;;;;;5.50;99.90;;;;;;5031345;28;19917;-52
2022/01/23 06:18:17;;;;;;;;;;;5.40;99.90;;;;;;5041301;28;19927;-49
2022/01/23 06:20:43;;;;;;;;;;;5.40;99.90;;;;;;5033353;28;19917;-49
2022/01/23 06:23:08;;;;;;;;;;;5.40;99.90;;;;;;5051980;28;20042;-51
2022/01/23 06:25:36;;;;;;;;;;;5.50;99.90;;;;;;5081368;28;20405;-49
2022/01/23 06:28:05;;;;;;;;;;;5.40;99.90;;;;;;5068319;28;20007;-53
2022/01/23 06:30:32;;;;;;;;;;;5.40;99.90;;;;;;5050577;28;19932;-49
2022/01/23 06:32:58;;;;;;;;;;;5.40;99.90;;;;;;5069198;28;20366;-50
2022/01/23 06:35:23;;;;;;;;;;;5.40;99.90;;;;;;5058100;28;19916;-50
2022/01/23 06:37:49;;;;;;;;;;;5.40;99.90;;;;;;5082525;28;19916;-49
2022/01/23 06:40:15;;;;;;;;;;;5.40;99.90;;;;;;5063351;28;19935;-49
2022/01/23 06:42:41;;;;;;;;;;;5.40;99.90;;;;;;5063141;28;20850;-48
2022/01/23 06:45:07;;;;;;;;;;;5.40;99.90;;;;;;5044928;28;19920;-48
2022/01/23 06:47:33;;;;;;;;;;;5.40;99.90;;;;;;5051428;28;19930;-49
2022/01/23 06:49:58;;;;;;;;;;;5.40;99.90;;;;;;5031387;28;20267;-53
2022/01/23 06:52:24;;;;;;;;;;;5.40;99.90;;;;;;5069971;28;19931;-49
2022/01/23 06:54:50;;;;;;;;;;;5.40;99.90;;;;;;5066345;28;19921;-50
2022/01/23 06:57:16;;;;;;;;;;;5.40;99.90;;;;;;5065423;28;20274;-50
2022/01/23 06:59:42;;;;;;;;;;;5.40;99.90;;;;;;5065411;28;19920;-48
2022/01/23 07:02:08;;;;;;;;;;;5.40;99.90;;;;;;5068529;28;20362;-49
2022/01/23 07:04:34;;;;;;;;;;;5.40;99.90;;;;;;5068202;28;20003;-49
2022/01/23 07:06:59;;;;;;;;;;;5.40;99.90;;;;;;5066793;28;20295;-49
2022/01/23 07:09:25;;;;;;;;;;;5.40;99.90;;;;;;5067618;28;19926;-50
2022/01/23 07:11:51;;;;;;;;;;;5.30;99.90;;;;;;5038994;28;20024;-49
2022/01/23 07:14:16;;;;;;;;;;;5.30;99.90;;;;;;5050674;28;20415;-50
2022/01/23 07:16:43;;;;;;;;;;;5.30;99.90;;;;;;5036248;28;19955;-48
2022/01/23 07:19:09;;;;;;;;;;;5.30;99.90;;;;;;5050616;28;19917;-50
2022/01/23 07:21:35;;;;;;;;;;;5.30;99.90;;;;;;5051002;28;19926;-49
2022/01/23 07:24:01;;;;;;;;;;;5.30;99.90;;;;;;5068617;28;19924;-49
2022/01/23 07:26:28;;;;;;;;;;;5.30;99.90;;;;;;5035177;28;19985;-50
2022/01/23 07:28:56;;;;;;;;;;;5.30;99.90;;;;;;5048275;28;19916;-50
2022/01/23 07:31:44;;;;;;;;;;;5.30;99.90;;;;;;5048369;28;19924;-48
2022/01/23 07:34:09;;;;;;;;;;;5.30;99.90;;;;;;5066864;28;19931;-50
2022/01/23 07:36:35;;;;;;;;;;;5.30;99.90;;;;;;5065408;28;20306;-49
2022/01/23 07:39:03;;;;;;;;;;;5.30;99.90;;;;;;5030582;28;19921;-49
2022/01/23 07:41:29;;;;;;;;;;;5.30;99.90;;;;;;5049152;28;19924;-50
2022/01/23 07:43:55;;;;;;;;;;;5.30;99.90;;;;;;5091367;28;19920;-49
2022/01/23 07:46:21;;;;;;;;;;;5.30;99.90;;;;;;5071774;28;19928;-49
2022/01/23 07:48:47;;;;;;;;;;;5.30;99.90;;;;;;5070476;28;19924;-49
2022/01/23 07:51:13;;;;;;;;;;;5.30;99.90;;;;;;5070639;28;20539;-49
2022/01/23 07:53:39;;;;;;;;;;;5.30;99.90;;;;;;5053356;28;19920;-49
2022/01/23 07:56:04;;;;;;;;;;;5.30;99.90;;;;;;5067784;28;20614;-51
2022/01/23 07:58:30;;;;;;;;;;;5.30;99.90;;;;;;5072006;28;20405;-49
2022/01/23 08:00:56;;;;;;;;;;;5.30;99.90;;;;;;5070307;28;19972;-53
2022/01/23 08:03:23;;;;;;;;;;;5.30;99.90;;;;;;5070425;28;19931;-49
2022/01/23 08:05:48;;;;;;;;;;;5.30;99.90;;;;;;5073277;28;19919;-46
2022/01/23 08:08:14;;;;;;;;;;;5.40;99.90;;;;;;5068971;28;19983;-46
2022/01/23 08:10:40;;;;;;;;;;;5.40;99.90;;;;;;5068905;28;19917;-45
2022/01/23 08:13:06;;;;;;;;;;;5.40;99.90;;;;;;5068912;28;19924;-46
2022/01/23 08:15:33;;;;;;;;;;;5.40;99.90;;;;;;5048953;28;19995;-46
2022/01/23 08:18:00;;;;;;;;;;;5.40;99.90;;;;;;5069697;28;19917;-47
2022/01/23 08:20:27;;;;;;;;;;;5.40;99.90;;;;;;5070754;28;19935;-46
2022/01/23 08:22:52;;;;;;;;;;;5.50;99.90;;;;;;5066940;28;20066;-46
2022/01/23 08:25:18;;;;;;;;;;;5.40;99.90;;;;;;5066755;28;19935;-47
2022/01/23 08:27:44;;;;;;;;;;;5.50;99.90;;;;;;5084515;28;19965;-46
2022/01/23 08:30:12;;;;;;;;;;;5.50;99.90;;;;;;5070094;28;20278;-47
2022/01/23 08:32:37;;;;;;;;;;;5.50;99.90;;;;;;5103453;27;19989;-46
2022/01/23 08:35:04;;;;;;;;;;;5.50;99.90;;;;;;5070902;28;20385;-47
2022/01/23 08:37:30;;;;;;;;;;;5.50;99.90;;;;;;5069548;28;19966;-50
2022/01/23 08:39:56;;;;;;;;;;;5.50;99.90;;;;;;5067713;28;20019;-50
2022/01/23 08:42:22;;;;;;;;;;;5.50;99.90;;;;;;5068670;28;19996;-47
2022/01/23 08:44:49;;;;;;;;;;;5.60;99.90;;;;;;5073740;28;19966;-47
2022/01/23 08:47:14;;;;;;;;;;;5.60;99.90;;;;;;5091731;28;19974;-49
2022/01/23 08:49:46;;;;;;;;;;;5.60;99.90;;;;;;5053770;28;19916;-49
2022/01/23 08:52:14;;;;;;;;;;;5.50;99.90;;;;;;5072194;28;19982;-46
2022/01/23 08:54:40;;;;;;;;;;;5.50;99.90;;;;;;5055446;28;20296;-47
2022/01/23 08:57:05;;;;;;;;;;;5.50;99.90;;;;;;5079159;28;19916;-47
2022/01/23 08:59:31;;;;;;;;;;;5.60;99.90;;;;;;5067409;28;19925;-48
2022/01/23 09:01:57;;;;;;;;;;;5.60;99.90;;;;;;5076286;28;19924;-46
2022/01/23 09:04:23;;;;;;;;;;;5.60;99.90;;;;;;5065802;28;19955;-47
2022/01/23 09:06:48;;;;;;;;;;;5.60;99.90;;;;;;5104168;28;19954;-47
2022/01/23 09:09:18;;;;;;;;;;;5.70;99.90;;;;;;5066484;28;19923;-45
2022/01/23 09:14:20;;;;;;;;;;;5.60;99.90;;;;;;5069155;28;20000;-51
2022/01/23 09:16:46;;;;;;;;;;;5.60;99.90;;;;;;5069758;28;19920;-48
2022/01/23 09:19:12;;;;;;;;;;;5.60;99.90;;;;;;5067935;28;19924;-47
2022/01/23 09:21:38;;;;;;;;;;;5.60;99.90;;;;;;5070746;28;19916;-49
2022/01/23 09:24:05;;;;;;;;;;;5.70;99.90;;;;;;5068429;28;19924;-46
2022/01/23 09:26:31;;;;;;;;;;;5.70;99.90;;;;;;5082259;28;21240;-46
2022/01/23 09:28:59;;;;;;;;;;;5.80;99.90;;;;;;5082083;28;19963;-48
2022/01/23 09:31:44;;;;;;;;;;;5.90;99.90;;;;;;5052508;28;19949;-48
2022/01/23 09:34:10;;;;;;;;;;;6.10;99.90;;;;;;5080135;28;19924;-47
2022/01/23 09:36:36;;;;;;;;;;;6.20;99.90;;;;;;5074408;28;19924;-48
2022/01/23 09:39:02;;;;;;;;;;;;;;;;;;5084421;28;19998;-50
2022/01/23 09:41:29;;;;;;;;;;;6.40;99.90;;;;;;5063553;28;19962;-46
2022/01/23 09:43:55;;;;;;;;;;;6.40;99.90;;;;;;5060724;28;19921;-46
2022/01/23 09:46:22;;;;;;;;;;;6.40;99.90;;;;;;5033153;28;19954;-46
2022/01/23 09:48:49;;;;;;;;;;;6.50;99.90;;;;;;5067558;28;20046;-46
2022/01/23 09:51:15;;;;;;;;;;;6.50;99.90;;;;;;5070907;28;19943;-48
2022/01/23 09:53:41;;;;;;;;;;;6.50;99.90;;;;;;5053498;28;20023;-48
2022/01/23 09:56:09;;;;;;;;;;;6.50;99.90;;;;;;5037010;28;19916;-49
2022/01/23 09:58:37;;;;;;;;;;;6.50;99.90;;;;;;5067946;28;20278;-49
2022/01/23 10:01:03;;;;;;;;;;;6.60;99.90;;;;;;5049585;28;19916;-48
2022/01/23 10:03:29;;;;;;;;;;;6.60;99.90;;;;;;5070809;28;20378;-49
2022/01/23 10:05:55;;;;;;;;;;;6.60;99.90;;;;;;5052596;28;19964;-47
2022/01/23 10:08:22;;;;;;;;;;;6.60;99.90;;;;;;5038002;28;20435;-47
2022/01/23 10:10:53;;;;;;;;;;;6.60;99.90;;;;;;5054923;28;19916;-48
2022/01/23 10:13:23;;;;;;;;;;;6.60;99.90;;;;;;5034553;28;20025;-46
2022/01/23 10:15:48;;;;;;;;;;;6.70;99.90;;;;;;5073009;28;20381;-47
2022/01/23 10:18:15;;;;;;;;;;;6.70;99.90;;;;;;5032672;28;19923;-46
2022/01/23 10:20:41;;;;;;;;;;;6.80;99.90;;;;;;5055048;28;19920;-51
2022/01/23 10:23:08;;;;;;;;;;;6.90;99.90;;;;;;5055327;28;19916;-51
2022/01/23 10:25:40;;;;;;;;;;;6.90;99.90;;;;;;5052923;28;19916;-48
2022/01/23 10:28:18;;;;;;;;;;;6.90;99.90;;;;;;5069361;28;19924;-46
2022/01/23 10:30:48;;;;;;;;;;;7.00;99.90;;;;;;5053504;28;19977;-46
2022/01/23 10:33:21;;;;;;;;;;;7.00;99.90;;;;;;5050711;28;19991;-47
2022/01/23 10:35:53;;;;;;;;;;;7.10;99.90;;;;;;5049948;28;19923;-46
2022/01/23 10:38:19;;;;;;;;;;;7.10;99.90;;;;;;5067752;28;19923;-47
2022/01/23 10:40:51;;;;;;;;;;;7.10;99.90;;;;;;5050503;28;20280;-47
2022/01/23 10:48:41;;;;;;;;;;;7.10;99.90;;;;;;5085760;28;19965;-47
2022/01/23 10:51:18;;;;;;;;;;;7.20;99.90;;;;;;5052483;28;19963;-48
2022/01/23 10:53:57;;;;;;;;;;;7.20;99.90;;;;;;5072337;28;19924;-48
2022/01/23 10:56:24;;;;;;;;;;;7.10;99.90;;;;;;5087198;28;19916;-47
2022/01/23 10:59:16;;;;;;;;;;;7.10;99.90;;;;;;5086672;28;20328;-46
2022/01/23 11:02:08;;;;;;;;;;;7.10;99.90;;;;;;5078328;28;20274;-47
2022/01/23 11:04:35;;;;;;;;;;;7.10;99.90;;;;;;5080505;28;20350;-49
2022/01/23 11:07:02;;;;;;;;;;;7.10;99.90;;;;;;5053520;28;19920;-50
2022/01/23 11:09:30;;;;;;;;;;;7.10;99.90;;;;;;5088354;28;20476;-47
2022/01/23 11:12:05;;;;;;;;;;;7.10;99.90;;;;;;5055729;28;19931;-46
2022/01/23 11:17:23;;;;;;;;;;;7.10;99.90;;;;;;5070623;28;19917;-50
2022/01/23 11:19:49;;;;;;;;;;;7.10;99.90;;;;;;5070084;28;19981;-48
2022/01/23 11:22:18;;;;;;;;;;;7.00;99.90;;;;;;5070216;28;19943;-46
2022/01/23 11:24:48;;;;;;;;;;;7.00;99.90;;;;;;5067756;28;19973;-47
2022/01/23 11:27:14;;;;;;;;;;;7.10;99.90;;;;;;5087348;28;19916;-47
2022/01/23 11:29:58;;;;;;;;;;;7.10;99.90;;;;;;5087687;28;19978;-49
2022/01/23 11:32:26;;;;;;;;;;;7.20;99.90;;;;;;5069924;28;20310;-46
2022/01/23 11:34:57;;;;;;;;;;;7.20;99.90;;;;;;5086513;28;20284;-48
2022/01/23 11:37:23;;;;;;;;;;;7.20;99.90;;;;;;5086597;28;19967;-46
2022/01/23 11:39:55;;;;;;;;;;;7.30;99.90;;;;;;5069704;28;19920;-46
2022/01/23 11:51:04;;;;;;;;;;;7.30;99.90;;;;;;5082878;28;19920;-47
2022/01/23 11:53:51;;;;;;;;;;;7.30;99.90;;;;;;5069485;28;19924;-48
2022/01/23 11:56:27;;;;;;;;;;;7.40;99.90;;;;;;5071244;28;19916;-44
2022/01/23 11:59:15;;;;;;;;;;;7.40;99.90;;;;;;5086975;28;19931;-45
2022/01/23 12:01:42;;;;;;;;;;;7.50;99.90;;;;;;5070329;28;20301;-45
2022/01/23 12:04:08;;;;;;;;;;;7.50;99.90;;;;;;5070130;28;19951;-47
2022/01/23 12:06:38;;;;;;;;;;;7.60;99.90;;;;;;5084803;28;19920;-48
2022/01/23 12:09:17;;;;;;;;;;;7.60;99.90;;;;;;5086677;28;19915;-51
2022/01/23 12:12:02;;;;;;;;;;;7.60;99.90;;;;;;5067279;28;20385;-48
2022/01/23 12:17:15;;;;;;;;;;;7.70;99.90;;;;;;5086966;28;19942;-50
2022/01/23 12:19:55;;;;;;;;;;;7.70;99.90;;;;;;5085941;28;19935;-47
2022/01/23 12:22:23;;;;;;;;;;;7.80;99.90;;;;;;5088874;28;19967;-59
2022/01/23 12:24:50;;;;;;;;;;;7.80;99.90;;;;;;5056693;28;19916;-46
2022/01/23 12:27:17;;;;;;;;;;;7.80;99.90;;;;;;5069516;28;20006;-50
2022/01/23 12:29:43;;;;;;;;;;;7.90;99.90;;;;;;5067432;28;20903;-51
2022/01/23 12:32:26;;;;;;;;;;;7.90;99.90;;;;;;5088685;28;19955;-47
2022/01/23 12:34:59;;;;;;;;;;;7.90;99.90;;;;;;5073993;28;20242;-46
2022/01/23 12:37:26;;;;;;;;;;;7.90;99.90;;;;;;5088353;28;20364;-47
2022/01/23 12:40:11;;;;;;;;;;;7.90;99.90;;;;;;5071241;28;20457;-46
2022/01/23 12:42:55;;;;;;;;;;;7.90;99.90;;;;;;5087490;28;20400;-46
2022/01/23 12:45:40;;;;;;;;;;;7.80;99.90;;;;;;5089345;28;20014;-45
2022/01/23 12:48:24;;;;;;;;;;;7.80;99.90;;;;;;5052104;28;19976;-45
2022/01/23 12:50:51;;;;;;;;;;;7.80;99.90;;;;;;5073077;28;19932;-47
2022/01/23 12:53:16;;;;;;;;;;;7.80;99.90;;;;;;5071439;28;19928;-46
2022/01/23 12:56:02;;;;;;;;;;;7.80;99.90;;;;;;5092973;28;20243;-45
2022/01/23 12:58:29;;;;;;;;;;;7.80;99.90;;;;;;5090482;28;19923;-47
2022/01/23 13:00:54;;;;;;;;;;;7.80;99.90;;;;;;5074197;28;19954;-46
2022/01/23 13:03:24;;;;;;;;;;;7.70;99.90;;;;;;5090580;28;19967;-47
2022/01/23 13:05:51;;;;;;;;;;;7.30;99.90;;;;;;5055546;28;20942;-45
2022/01/23 13:08:34;;;;;;;;;;;7.70;99.90;;;;;;5054737;28;20370;-47
2022/01/23 13:13:53;;;;;;;;;;;7.70;99.90;;;;;;5091176;28;19959;-46
2022/01/23 13:30:18;;;;;;;;;;;7.60;99.90;;;;;;5070433;28;19920;-47
2022/01/23 13:32:49;;;;;;;;;;;7.60;99.90;;;;;;5069426;28;19939;-45
2022/01/23 13:35:17;;;;;;;;;;;7.50;99.90;;;;;;5074131;28;19955;-46
2022/01/23 13:37:44;;;;;;;;;;;7.50;99.90;;;;;;5058323;28;20008;-44
2022/01/23 13:40:12;;;;;;;;;;;7.50;99.90;;;;;;5068936;28;19916;-45
2022/01/23 13:51:19;;;;;;;;;;;7.40;99.90;;;;;;5067886;28;19916;-49
2022/01/23 13:59:05;;;;;;;;;;;7.40;99.90;;;;;;5067525;28;19916;-48
2022/01/23 14:01:46;;;;;;;;;;;7.30;99.90;;;;;;5068663;28;19927;-47
2022/01/23 14:04:14;;;;;;;;;;;7.30;99.90;;;;;;5069470;28;19943;-46
2022/01/23 14:06:40;;;;;;;;;;;7.30;99.90;;;;;;5068421;28;19916;-46
2022/01/23 14:09:06;;;;;;;;;;;7.30;99.90;;;;;;5034458;28;20006;-48
2022/01/23 14:11:32;;;;;;;;;;;7.30;99.90;;;;;;5066417;28;20318;-46
2022/01/23 14:14:15;;;;;;;;;;;7.30;99.90;;;;;;5050609;28;19920;-45
2022/01/23 14:16:41;;;;;;;;;;;7.30;99.90;;;;;;5036199;28;19931;-46
2022/01/23 14:19:22;;;;;;;;;;;7.30;99.90;;;;;;5064156;28;20334;-49
2022/01/23 14:21:50;;;;;;;;;;;7.30;99.90;;;;;;5035874;28;20312;-47
2022/01/23 14:24:19;;;;;;;;;;;7.30;99.90;;;;;;5050302;28;19956;-47
2022/01/23 14:27:03;;;;;;;;;;;7.30;99.90;;;;;;5049838;28;19920;-46
2022/01/23 14:29:29;;;;;;;;;;;7.20;99.90;;;;;;5070127;28;19916;-46
2022/01/23 14:32:13;;;;;;;;;;;7.20;99.90;;;;;;5050433;28;19999;-47
2022/01/23 14:34:41;;;;;;;;;;;7.20;99.90;;;;;;5066716;28;19928;-50
2022/01/23 14:37:07;;;;;;;;;;;7.20;99.90;;;;;;5050532;28;19964;-47
2022/01/23 14:39:34;;;;;;;;;;;7.20;99.90;;;;;;5049205;28;20011;-47
2022/01/23 14:42:17;;;;;;;;;;;7.10;99.90;;;;;;5062292;28;19916;-45
2022/01/23 14:44:43;;;;;;;;;;;7.10;99.90;;;;;;5081846;28;19923;-48
2022/01/23 14:47:10;;;;;;;;;;;7.10;99.90;;;;;;5086303;28;19916;-46
2022/01/23 14:49:37;;;;;;;;;;;7.10;99.90;;;;;;5067026;28;19955;-47
2022/01/23 14:52:09;;;;;;;;;;;7.10;99.90;;;;;;5086344;28;19927;-47
2022/01/23 14:54:35;;;;;;;;;;;7.00;99.90;;;;;;5069651;28;19916;-46
2022/01/23 14:57:02;;;;;;;;;;;7.10;99.90;;;;;;5069425;28;19926;-49
2022/01/23 14:59:32;;;;;;;;;;;7.00;99.90;;;;;;5070096;28;19915;-47
2022/01/23 15:01:58;;;;;;;;;;;7.10;99.90;;;;;;5066986;28;19965;-45
2022/01/23 15:04:24;;;;;;;;;;;7.00;99.90;;;;;;5086411;28;19916;-48
2022/01/23 15:06:52;;;;;;;;;;;7.00;99.90;;;;;;5084316;28;19996;-50
2022/01/23 15:09:19;;;;;;;;;;;7.00;99.90;;;;;;5087129;28;19924;-47
2022/01/23 15:11:45;;;;;;;;;;;7.00;99.90;;;;;;5084987;28;20163;-47
2022/01/23 15:14:11;;;;;;;;;;;6.90;99.90;;;;;;5053049;28;20451;-48
2022/01/23 15:16:37;;;;;;;;;;;6.90;99.90;;;;;;5086365;28;19943;-47
2022/01/23 15:19:03;;;;;;;;;;;6.90;99.90;;;;;;5090388;28;19969;-47
2022/01/23 15:21:29;;;;;;;;;;;6.90;99.90;;;;;;5076760;28;19916;-46
2022/01/23 15:23:58;;;;;;;;;;;6.90;99.90;;;;;;5092194;28;20367;-45
2022/01/23 15:26:25;;;;;;;;;;;6.90;99.90;;;;;;5059707;28;19977;-47
2022/01/23 15:28:51;;;;;;;;;;;6.90;99.90;;;;;;5060312;28;19941;-47
2022/01/23 15:31:17;;;;;;;;;;;6.80;99.90;;;;;;5068950;28;19950;-47
2022/01/23 15:33:42;;;;;;;;;;;6.80;99.90;;;;;;5065904;28;19927;-49
2022/01/23 15:36:09;;;;;;;;;;;6.80;99.90;;;;;;5087999;28;19920;-47
2022/01/23 15:38:36;;;;;;;;;;;6.80;99.90;;;;;;5063386;28;20014;-45
2022/01/23 15:41:02;;;;;;;;;;;6.80;99.90;;;;;;5069741;28;20007;-45
2022/01/23 15:43:28;;;;;;;;;;;6.80;99.90;;;;;;5081262;28;19938;-46
2022/01/23 15:45:53;;;;;;;;;;;6.80;99.90;;;;;;5087022;28;19926;-46
2022/01/23 15:48:19;;;;;;;;;;;6.80;99.90;;;;;;5071310;28;19926;-46
2022/01/23 15:50:45;;;;;;;;;;;6.80;99.90;;;;;;5100944;28;20226;-46
2022/01/23 15:53:12;;;;;;;;;;;6.70;99.90;;;;;;5080503;28;20290;-45
2022/01/23 15:55:38;;;;;;;;;;;6.70;99.90;;;;;;5085300;28;19935;-47
2022/01/23 15:58:04;;;;;;;;;;;6.70;99.90;;;;;;5048922;28;19923;-46
2022/01/23 16:00:31;;;;;;;;;;;6.70;99.90;;;;;;5081747;28;20065;-44
2022/01/23 16:02:57;;;;;;;;;;;6.70;99.90;;;;;;5088937;28;20395;-46
2022/01/23 16:05:23;;;;;;;;;;;6.60;99.90;;;;;;5084271;28;19923;-45
2022/01/23 16:07:50;;;;;;;;;;;6.60;99.90;;;;;;5090419;28;19927;-45
2022/01/23 16:10:15;;;;;;;;;;;6.60;99.90;;;;;;5087898;28;19931;-47
2022/01/23 16:12:42;;;;;;;;;;;6.60;99.90;;;;;;5087750;28;20418;-46
2022/01/23 16:15:12;;;;;;;;;;;6.60;99.90;;;;;;5053883;28;20007;-50
2022/01/23 16:17:38;;;;;;;;;;;6.60;99.90;;;;;;5091359;28;20265;-47
2022/01/23 16:20:05;;;;;;;;;;;6.50;99.90;;;;;;5088615;28;19916;-46
2022/01/23 16:22:31;;;;;;;;;;;6.60;99.90;;;;;;5074311;28;20376;-50
2022/01/23 16:24:57;;;;;;;;;;;6.50;99.90;;;;;;5071563;28;19924;-46
2022/01/23 16:27:23;;;;;;;;;;;6.50;99.90;;;;;;5102131;27;19922;-47
2022/01/23 16:29:49;;;;;;;;;;;6.50;99.90;;;;;;5085078;28;19916;-47
2022/01/23 16:32:14;;;;;;;;;;;6.50;99.90;;;;;;5089982;28;19928;-46
2022/01/23 16:34:40;;;;;;;;;;;6.50;99.90;;;;;;5073127;28;19923;-45
2022/01/23 16:37:06;;;;;;;;;;;6.50;99.90;;;;;;5087034;28;19919;-46
2022/01/23 16:39:32;;;;;;;;;;;6.50;99.90;;;;;;5089824;28;19923;-45
2022/01/23 16:41:58;;;;;;;;;;;6.50;99.90;;;;;;5072306;28;19915;-44
2022/01/23 16:44:24;;;;;;;;;;;6.60;99.90;;;;;;5058394;28;20472;-45
2022/01/23 16:46:50;;;;;;;;;;;6.40;99.90;;;;;;5070890;28;20469;-45
2022/01/23 16:49:16;;;;;;;;;;;6.40;99.90;;;;;;5049007;28;19967;-46
2022/01/23 16:51:42;;;;;;;;;;;6.40;99.90;;;;;;5049095;28;20653;-48
2022/01/23 16:54:09;;;;;;;;;;;6.40;99.90;;;;;;5081331;28;19916;-46
2022/01/23 16:56:35;;;;;;;;;;;6.40;99.90;;;;;;5069016;28;19976;-46
2022/01/23 16:59:01;;;;;;;;;;;6.40;99.90;;;;;;5067221;28;19956;-47
2022/01/23 17:01:27;;;;;;;;;;;6.40;99.90;;;;;;5050804;28;19924;-46
2022/01/23 17:03:53;;;;;;;;;;;6.40;99.90;;;;;;5067577;28;19981;-49
2022/01/23 17:06:20;;;;;;;;;;;6.40;99.90;;;;;;5084425;28;19924;-46
2022/01/23 17:08:46;;;;;;;;;;;6.40;99.90;;;;;;5066953;28;19939;-49
2022/01/23 17:11:11;;;;;;;;;;;6.40;99.90;;;;;;5047514;28;20378;-45
2022/01/23 17:13:37;;;;;;;;;;;6.40;99.90;;;;;;5066143;28;19928;-45
2022/01/23 17:16:03;;;;;;;;;;;6.40;99.90;;;;;;5066292;28;20370;-45
2022/01/23 17:18:30;;;;;;;;;;;6.40;99.90;;;;;;5046734;28;20374;-47
2022/01/23 17:20:56;;;;;;;;;;;6.30;99.90;;;;;;5047716;28;20613;-46
2022/01/23 17:23:21;;;;;;;;;;;6.30;99.90;;;;;;5044189;28;19925;-45
2022/01/23 17:25:47;;;;;;;;;;;6.30;99.90;;;;;;5067460;28;20272;-45
2022/01/23 17:28:13;;;;;;;;;;;6.30;99.90;;;;;;5067974;28;19920;-45
2022/01/23 17:30:39;;;;;;;;;;;6.30;99.90;;;;;;5049376;28;19955;-45
2022/01/23 17:33:04;;;;;;;;;;;6.30;99.90;;;;;;5050631;28;19924;-47
2022/01/23 17:35:30;;;;;;;;;;;6.30;99.90;;;;;;5047336;28;20011;-45
2022/01/23 17:37:57;;;;;;;;;;;6.30;99.90;;;;;;5045158;28;20297;-45
2022/01/23 17:40:23;;;;;;;;;;;6.30;99.90;;;;;;5048852;28;19935;-45
2022/01/23 17:42:49;;;;;;;;;;;6.30;99.90;;;;;;5049821;28;19935;-45
2022/01/23 17:45:22;;;;;;;;;;;6.30;99.90;;;;;;5066966;28;19969;-44
2022/01/23 17:50:19;;;;;;;;;;;6.30;99.90;;;;;;5065151;28;20231;-45
2022/01/23 17:52:46;;;;;;;;;;;6.30;99.90;;;;;;5049805;28;19936;-46
2022/01/23 17:55:12;;;;;;;;;;;6.30;99.90;;;;;;5051735;28;19916;-47
2022/01/23 17:57:38;;;;;;;;;;;6.30;99.90;;;;;;5031038;28;20288;-45
2022/01/23 18:00:06;;;;;;;;;;;6.20;99.90;;;;;;5048556;28;20011;-49